sensor_id;sensor_type;location;lat;lon;timestamp;P1;durP1;ratioP1;P2;durP2;ratioP2
17151;SDS011;8691;50.828;4.700;2022-11-21T00:02:04;9.17;;;3.30;;
17151;SDS011;8691;50.828;4.700;2022-11-21T00:04:31;7.70;;;2.80;;
17151;SDS011;8691;50.828;4.700;2022-11-21T00:06:57;7.07;;;3.10;;
17151;SDS011;8691;50.828;4.700;2022-11-21T00:09:24;9.40;;;3.47;;
17151;SDS011;8691;50.828;4.700;2022-11-21T00:11:52;8.13;;;3.40;;
17151;SDS011;8691;50.828;4.700;2022-11-21T00:14:19;8.15;;;3.30;;
17151;SDS011;8691;50.828;4.700;2022-11-21T00:16:46;8.48;;;3.00;;
17151;SDS011;8691;50.828;4.700;2022-11-21T00:19:12;7.93;;;3.03;;
17151;SDS011;8691;50.828;4.700;2022-11-21T00:21:39;10.32;;;3.55;;
17151;SDS011;8691;50.828;4.700;2022-11-21T00:24:08;8.55;;;3.33;;
17151;SDS011;8691;50.828;4.700;2022-11-21T00:26:33;10.27;;;3.10;;
17151;SDS011;8691;50.828;4.700;2022-11-21T00:29:00;9.20;;;3.40;;
17151;SDS011;8691;50.828;4.700;2022-11-21T00:31:27;11.67;;;3.57;;
17151;SDS011;8691;50.828;4.700;2022-11-21T00:33:54;11.88;;;3.60;;
17151;SDS011;8691;50.828;4.700;2022-11-21T00:36:21;9.37;;;3.50;;
17151;SDS011;8691;50.828;4.700;2022-11-21T00:38:48;9.18;;;3.60;;
17151;SDS011;8691;50.828;4.700;2022-11-21T00:41:14;8.63;;;3.13;;
17151;SDS011;8691;50.828;4.700;2022-11-21T00:43:41;9.20;;;3.50;;
17151;SDS011;8691;50.828;4.700;2022-11-21T00:46:08;10.68;;;4.03;;
17151;SDS011;8691;50.828;4.700;2022-11-21T00:48:35;9.60;;;4.23;;
17151;SDS011;8691;50.828;4.700;2022-11-21T00:51:02;10.17;;;3.33;;
17151;SDS011;8691;50.828;4.700;2022-11-21T00:53:29;9.90;;;3.37;;
17151;SDS011;8691;50.828;4.700;2022-11-21T00:55:56;12.30;;;4.50;;
17151;SDS011;8691;50.828;4.700;2022-11-21T00:58:23;11.00;;;5.03;;
17151;SDS011;8691;50.828;4.700;2022-11-21T01:00:50;12.63;;;3.80;;
17151;SDS011;8691;50.828;4.700;2022-11-21T01:03:17;10.57;;;4.22;;
17151;SDS011;8691;50.828;4.700;2022-11-21T01:05:44;11.18;;;4.20;;
17151;SDS011;8691;50.828;4.700;2022-11-21T01:08:11;11.13;;;4.30;;
17151;SDS011;8691;50.828;4.700;2022-11-21T01:10:37;10.30;;;4.03;;
17151;SDS011;8691;50.828;4.700;2022-11-21T01:13:04;11.87;;;4.43;;
17151;SDS011;8691;50.828;4.700;2022-11-21T01:15:32;11.23;;;4.17;;
17151;SDS011;8691;50.828;4.700;2022-11-21T01:17:58;11.10;;;4.20;;
17151;SDS011;8691;50.828;4.700;2022-11-21T01:20:25;12.43;;;4.30;;
17151;SDS011;8691;50.828;4.700;2022-11-21T01:22:52;11.40;;;3.40;;
17151;SDS011;8691;50.828;4.700;2022-11-21T01:25:19;9.93;;;4.00;;
17151;SDS011;8691;50.828;4.700;2022-11-21T01:27:46;11.73;;;4.28;;
17151;SDS011;8691;50.828;4.700;2022-11-21T01:30:13;9.77;;;3.73;;
17151;SDS011;8691;50.828;4.700;2022-11-21T01:32:40;9.23;;;4.10;;
17151;SDS011;8691;50.828;4.700;2022-11-21T01:35:07;6.13;;;2.70;;
17151;SDS011;8691;50.828;4.700;2022-11-21T01:37:34;9.53;;;3.07;;
17151;SDS011;8691;50.828;4.700;2022-11-21T01:40:02;14.15;;;4.32;;
17151;SDS011;8691;50.828;4.700;2022-11-21T01:42:28;7.73;;;3.00;;
17151;SDS011;8691;50.828;4.700;2022-11-21T01:44:55;10.00;;;3.80;;
17151;SDS011;8691;50.828;4.700;2022-11-21T01:47:22;9.20;;;3.80;;
17151;SDS011;8691;50.828;4.700;2022-11-21T01:49:48;7.80;;;3.10;;
17151;SDS011;8691;50.828;4.700;2022-11-21T01:54:50;9.40;;;3.72;;
17151;SDS011;8691;50.828;4.700;2022-11-21T01:57:28;12.17;;;4.07;;
17151;SDS011;8691;50.828;4.700;2022-11-21T02:02:32;10.23;;;3.87;;
17151;SDS011;8691;50.828;4.700;2022-11-21T02:04:57;11.87;;;4.10;;
17151;SDS011;8691;50.828;4.700;2022-11-21T02:07:24;9.75;;;3.70;;
17151;SDS011;8691;50.828;4.700;2022-11-21T02:09:52;7.62;;;3.70;;
17151;SDS011;8691;50.828;4.700;2022-11-21T02:12:25;10.12;;;2.88;;
17151;SDS011;8691;50.828;4.700;2022-11-21T02:14:50;9.03;;;3.10;;
17151;SDS011;8691;50.828;4.700;2022-11-21T02:17:17;11.65;;;3.67;;
17151;SDS011;8691;50.828;4.700;2022-11-21T02:22:35;9.53;;;3.67;;
17151;SDS011;8691;50.828;4.700;2022-11-21T02:25:20;9.77;;;3.27;;
17151;SDS011;8691;50.828;4.700;2022-11-21T02:27:45;7.90;;;3.20;;
17151;SDS011;8691;50.828;4.700;2022-11-21T02:30:12;7.37;;;2.73;;
17151;SDS011;8691;50.828;4.700;2022-11-21T02:32:40;10.20;;;3.80;;
17151;SDS011;8691;50.828;4.700;2022-11-21T02:35:08;10.12;;;3.83;;
17151;SDS011;8691;50.828;4.700;2022-11-21T02:37:36;11.47;;;3.50;;
17151;SDS011;8691;50.828;4.700;2022-11-21T02:40:05;7.80;;;2.87;;
17151;SDS011;8691;50.828;4.700;2022-11-21T02:42:35;8.18;;;2.80;;
17151;SDS011;8691;50.828;4.700;2022-11-21T02:45:05;10.12;;;3.70;;
17151;SDS011;8691;50.828;4.700;2022-11-21T02:47:30;8.57;;;3.50;;
17151;SDS011;8691;50.828;4.700;2022-11-21T02:50:00;8.48;;;3.40;;
17151;SDS011;8691;50.828;4.700;2022-11-21T02:52:26;9.87;;;3.67;;
17151;SDS011;8691;50.828;4.700;2022-11-21T02:54:53;7.20;;;3.03;;
17151;SDS011;8691;50.828;4.700;2022-11-21T02:57:21;6.03;;;3.03;;
17151;SDS011;8691;50.828;4.700;2022-11-21T02:59:48;8.17;;;2.70;;
17151;SDS011;8691;50.828;4.700;2022-11-21T03:02:16;8.43;;;2.80;;
17151;SDS011;8691;50.828;4.700;2022-11-21T03:04:43;10.45;;;3.33;;
17151;SDS011;8691;50.828;4.700;2022-11-21T03:07:10;9.27;;;3.50;;
17151;SDS011;8691;50.828;4.700;2022-11-21T03:09:37;11.35;;;3.33;;
17151;SDS011;8691;50.828;4.700;2022-11-21T03:12:08;8.02;;;3.20;;
17151;SDS011;8691;50.828;4.700;2022-11-21T03:14:34;8.07;;;3.20;;
17151;SDS011;8691;50.828;4.700;2022-11-21T03:17:01;7.95;;;2.90;;
17151;SDS011;8691;50.828;4.700;2022-11-21T03:19:28;6.65;;;3.08;;
17151;SDS011;8691;50.828;4.700;2022-11-21T03:21:54;7.40;;;2.60;;
17151;SDS011;8691;50.828;4.700;2022-11-21T03:24:21;8.12;;;2.90;;
17151;SDS011;8691;50.828;4.700;2022-11-21T03:26:48;8.73;;;3.50;;
17151;SDS011;8691;50.828;4.700;2022-11-21T03:29:15;9.20;;;3.38;;
17151;SDS011;8691;50.828;4.700;2022-11-21T03:31:42;5.00;;;2.63;;
17151;SDS011;8691;50.828;4.700;2022-11-21T03:34:08;7.43;;;3.47;;
17151;SDS011;8691;50.828;4.700;2022-11-21T03:36:35;7.07;;;3.00;;
17151;SDS011;8691;50.828;4.700;2022-11-21T03:39:02;8.27;;;2.93;;
17151;SDS011;8691;50.828;4.700;2022-11-21T03:41:28;6.83;;;2.27;;
17151;SDS011;8691;50.828;4.700;2022-11-21T03:43:56;8.32;;;2.85;;
17151;SDS011;8691;50.828;4.700;2022-11-21T03:46:25;8.95;;;3.12;;
17151;SDS011;8691;50.828;4.700;2022-11-21T03:48:52;8.20;;;3.10;;
17151;SDS011;8691;50.828;4.700;2022-11-21T03:51:18;7.03;;;2.53;;
17151;SDS011;8691;50.828;4.700;2022-11-21T03:53:45;7.35;;;2.75;;
17151;SDS011;8691;50.828;4.700;2022-11-21T03:56:12;8.70;;;3.33;;
17151;SDS011;8691;50.828;4.700;2022-11-21T03:58:39;6.60;;;3.17;;
17151;SDS011;8691;50.828;4.700;2022-11-21T04:01:05;7.20;;;3.10;;
17151;SDS011;8691;50.828;4.700;2022-11-21T04:03:32;8.48;;;3.30;;
17151;SDS011;8691;50.828;4.700;2022-11-21T04:05:59;7.37;;;2.90;;
17151;SDS011;8691;50.828;4.700;2022-11-21T04:08:26;7.93;;;3.70;;
17151;SDS011;8691;50.828;4.700;2022-11-21T04:10:53;9.52;;;3.45;;
17151;SDS011;8691;50.828;4.700;2022-11-21T04:13:19;5.33;;;2.70;;
17151;SDS011;8691;50.828;4.700;2022-11-21T04:15:46;7.65;;;3.25;;
17151;SDS011;8691;50.828;4.700;2022-11-21T04:18:13;7.27;;;3.07;;
17151;SDS011;8691;50.828;4.700;2022-11-21T04:20:39;8.82;;;4.00;;
17151;SDS011;8691;50.828;4.700;2022-11-21T04:23:06;6.13;;;3.10;;
17151;SDS011;8691;50.828;4.700;2022-11-21T04:25:33;10.13;;;3.70;;
17151;SDS011;8691;50.828;4.700;2022-11-21T04:28:01;7.20;;;3.70;;
17151;SDS011;8691;50.828;4.700;2022-11-21T04:30:28;7.33;;;2.97;;
17151;SDS011;8691;50.828;4.700;2022-11-21T04:32:55;10.62;;;4.07;;
17151;SDS011;8691;50.828;4.700;2022-11-21T04:35:22;6.93;;;3.30;;
17151;SDS011;8691;50.828;4.700;2022-11-21T04:37:48;7.13;;;3.03;;
17151;SDS011;8691;50.828;4.700;2022-11-21T04:40:15;8.65;;;3.40;;
17151;SDS011;8691;50.828;4.700;2022-11-21T04:42:42;8.27;;;3.40;;
17151;SDS011;8691;50.828;4.700;2022-11-21T04:45:09;6.90;;;3.38;;
17151;SDS011;8691;50.828;4.700;2022-11-21T04:47:39;9.98;;;3.50;;
17151;SDS011;8691;50.828;4.700;2022-11-21T04:50:07;7.67;;;3.77;;
17151;SDS011;8691;50.828;4.700;2022-11-21T04:52:33;10.10;;;3.27;;
17151;SDS011;8691;50.828;4.700;2022-11-21T04:55:01;7.93;;;3.10;;
17151;SDS011;8691;50.828;4.700;2022-11-21T04:57:27;7.60;;;3.10;;
17151;SDS011;8691;50.828;4.700;2022-11-21T04:59:54;7.70;;;3.00;;
17151;SDS011;8691;50.828;4.700;2022-11-21T05:02:21;7.87;;;2.90;;
17151;SDS011;8691;50.828;4.700;2022-11-21T05:04:48;7.30;;;3.27;;
17151;SDS011;8691;50.828;4.700;2022-11-21T05:07:14;11.50;;;2.93;;
17151;SDS011;8691;50.828;4.700;2022-11-21T05:09:41;6.73;;;3.00;;
17151;SDS011;8691;50.828;4.700;2022-11-21T05:12:09;7.97;;;2.92;;
17151;SDS011;8691;50.828;4.700;2022-11-21T05:14:54;5.43;;;2.60;;
17151;SDS011;8691;50.828;4.700;2022-11-21T05:17:20;6.45;;;2.78;;
17151;SDS011;8691;50.828;4.700;2022-11-21T05:19:47;8.37;;;2.90;;
17151;SDS011;8691;50.828;4.700;2022-11-21T05:22:14;9.50;;;3.20;;
17151;SDS011;8691;50.828;4.700;2022-11-21T05:24:41;8.93;;;3.07;;
17151;SDS011;8691;50.828;4.700;2022-11-21T05:27:09;6.47;;;3.00;;
17151;SDS011;8691;50.828;4.700;2022-11-21T05:29:36;6.45;;;2.65;;
17151;SDS011;8691;50.828;4.700;2022-11-21T05:32:03;7.85;;;2.53;;
17151;SDS011;8691;50.828;4.700;2022-11-21T05:34:30;7.45;;;2.90;;
17151;SDS011;8691;50.828;4.700;2022-11-21T05:36:57;7.10;;;2.50;;
17151;SDS011;8691;50.828;4.700;2022-11-21T05:39:25;6.87;;;2.70;;
17151;SDS011;8691;50.828;4.700;2022-11-21T05:41:52;5.10;;;2.30;;
17151;SDS011;8691;50.828;4.700;2022-11-21T05:44:19;5.82;;;2.40;;
17151;SDS011;8691;50.828;4.700;2022-11-21T05:46:46;7.00;;;2.65;;
17151;SDS011;8691;50.828;4.700;2022-11-21T05:49:12;7.75;;;2.70;;
17151;SDS011;8691;50.828;4.700;2022-11-21T05:51:40;6.57;;;2.67;;
17151;SDS011;8691;50.828;4.700;2022-11-21T05:54:10;5.13;;;2.40;;
17151;SDS011;8691;50.828;4.700;2022-11-21T05:56:35;7.28;;;2.62;;
17151;SDS011;8691;50.828;4.700;2022-11-21T05:59:02;6.97;;;2.60;;
17151;SDS011;8691;50.828;4.700;2022-11-21T06:01:29;6.18;;;2.50;;
17151;SDS011;8691;50.828;4.700;2022-11-21T06:04:15;4.77;;;1.80;;
17151;SDS011;8691;50.828;4.700;2022-11-21T06:06:42;6.12;;;2.50;;
17151;SDS011;8691;50.828;4.700;2022-11-21T06:09:08;6.35;;;2.40;;
17151;SDS011;8691;50.828;4.700;2022-11-21T06:11:35;6.62;;;2.60;;
17151;SDS011;8691;50.828;4.700;2022-11-21T06:14:03;6.78;;;2.72;;
17151;SDS011;8691;50.828;4.700;2022-11-21T06:16:30;6.38;;;2.70;;
17151;SDS011;8691;50.828;4.700;2022-11-21T06:18:57;7.43;;;2.85;;
17151;SDS011;8691;50.828;4.700;2022-11-21T06:21:24;10.87;;;7.37;;
17151;SDS011;8691;50.828;4.700;2022-11-21T06:23:51;10.48;;;6.45;;
17151;SDS011;8691;50.828;4.700;2022-11-21T06:26:18;4.83;;;2.30;;
17151;SDS011;8691;50.828;4.700;2022-11-21T06:28:44;7.38;;;2.70;;
17151;SDS011;8691;50.828;4.700;2022-11-21T06:31:11;8.57;;;2.60;;
17151;SDS011;8691;50.828;4.700;2022-11-21T06:33:38;6.63;;;2.83;;
17151;SDS011;8691;50.828;4.700;2022-11-21T06:36:07;8.35;;;2.50;;
17151;SDS011;8691;50.828;4.700;2022-11-21T06:38:37;9.35;;;3.92;;
17151;SDS011;8691;50.828;4.700;2022-11-21T06:41:09;7.60;;;3.60;;
17151;SDS011;8691;50.828;4.700;2022-11-21T06:43:37;6.28;;;2.62;;
17151;SDS011;8691;50.828;4.700;2022-11-21T06:46:04;7.25;;;3.12;;
17151;SDS011;8691;50.828;4.700;2022-11-21T06:48:31;7.57;;;3.30;;
17151;SDS011;8691;50.828;4.700;2022-11-21T06:53:34;7.17;;;3.03;;
17151;SDS011;8691;50.828;4.700;2022-11-21T06:56:02;6.82;;;3.47;;
17151;SDS011;8691;50.828;4.700;2022-11-21T06:58:28;7.93;;;2.77;;
17151;SDS011;8691;50.828;4.700;2022-11-21T07:00:55;6.83;;;2.90;;
17151;SDS011;8691;50.828;4.700;2022-11-21T07:03:22;9.00;;;3.30;;
17151;SDS011;8691;50.828;4.700;2022-11-21T07:05:49;8.33;;;2.97;;
17151;SDS011;8691;50.828;4.700;2022-11-21T07:08:16;6.63;;;3.13;;
17151;SDS011;8691;50.828;4.700;2022-11-21T07:10:43;9.73;;;3.70;;
17151;SDS011;8691;50.828;4.700;2022-11-21T07:13:09;8.87;;;3.80;;
17151;SDS011;8691;50.828;4.700;2022-11-21T07:15:53;11.15;;;4.57;;
17151;SDS011;8691;50.828;4.700;2022-11-21T07:18:19;8.65;;;3.83;;
17151;SDS011;8691;50.828;4.700;2022-11-21T07:20:46;11.10;;;4.97;;
17151;SDS011;8691;50.828;4.700;2022-11-21T07:23:13;11.50;;;4.90;;
17151;SDS011;8691;50.828;4.700;2022-11-21T07:25:39;8.47;;;3.67;;
17151;SDS011;8691;50.828;4.700;2022-11-21T07:28:06;14.40;;;4.65;;
17151;SDS011;8691;50.828;4.700;2022-11-21T07:30:33;12.60;;;4.90;;
17151;SDS011;8691;50.828;4.700;2022-11-21T07:33:00;6.27;;;3.30;;
17151;SDS011;8691;50.828;4.700;2022-11-21T07:35:29;10.30;;;4.30;;
17151;SDS011;8691;50.828;4.700;2022-11-21T07:37:56;10.05;;;4.62;;
17151;SDS011;8691;50.828;4.700;2022-11-21T07:40:23;10.18;;;4.25;;
17151;SDS011;8691;50.828;4.700;2022-11-21T07:42:50;10.77;;;3.40;;
17151;SDS011;8691;50.828;4.700;2022-11-21T07:45:17;9.18;;;3.70;;
17151;SDS011;8691;50.828;4.700;2022-11-21T07:47:43;11.93;;;2.83;;
17151;SDS011;8691;50.828;4.700;2022-11-21T07:50:10;10.27;;;3.40;;
17151;SDS011;8691;50.828;4.700;2022-11-21T07:52:37;7.50;;;2.57;;
17151;SDS011;8691;50.828;4.700;2022-11-21T07:55:04;7.97;;;3.03;;
17151;SDS011;8691;50.828;4.700;2022-11-21T07:57:31;9.47;;;3.20;;
17151;SDS011;8691;50.828;4.700;2022-11-21T07:59:58;7.18;;;3.10;;
17151;SDS011;8691;50.828;4.700;2022-11-21T08:02:26;6.55;;;3.25;;
17151;SDS011;8691;50.828;4.700;2022-11-21T08:04:52;5.80;;;2.40;;
17151;SDS011;8691;50.828;4.700;2022-11-21T08:07:19;7.78;;;2.90;;
17151;SDS011;8691;50.828;4.700;2022-11-21T08:09:45;6.78;;;2.83;;
17151;SDS011;8691;50.828;4.700;2022-11-21T08:12:13;7.07;;;2.60;;
17151;SDS011;8691;50.828;4.700;2022-11-21T08:14:40;7.05;;;2.70;;
17151;SDS011;8691;50.828;4.700;2022-11-21T08:17:07;7.12;;;2.88;;
17151;SDS011;8691;50.828;4.700;2022-11-21T08:19:33;5.40;;;2.40;;
17151;SDS011;8691;50.828;4.700;2022-11-21T08:22:00;5.82;;;2.33;;
17151;SDS011;8691;50.828;4.700;2022-11-21T08:24:27;4.03;;;2.10;;
17151;SDS011;8691;50.828;4.700;2022-11-21T08:26:54;7.18;;;2.72;;
17151;SDS011;8691;50.828;4.700;2022-11-21T08:29:21;7.80;;;2.60;;
17151;SDS011;8691;50.828;4.700;2022-11-21T08:31:48;8.27;;;2.55;;
17151;SDS011;8691;50.828;4.700;2022-11-21T08:34:14;6.20;;;2.60;;
17151;SDS011;8691;50.828;4.700;2022-11-21T08:36:41;6.03;;;2.95;;
17151;SDS011;8691;50.828;4.700;2022-11-21T08:39:08;8.75;;;3.33;;
17151;SDS011;8691;50.828;4.700;2022-11-21T08:41:35;7.12;;;3.08;;
17151;SDS011;8691;50.828;4.700;2022-11-21T08:44:20;8.10;;;3.13;;
17151;SDS011;8691;50.828;4.700;2022-11-21T08:46:47;7.73;;;3.50;;
17151;SDS011;8691;50.828;4.700;2022-11-21T08:49:14;7.53;;;3.30;;
17151;SDS011;8691;50.828;4.700;2022-11-21T08:51:42;8.97;;;3.27;;
17151;SDS011;8691;50.828;4.700;2022-11-21T08:54:09;6.80;;;3.23;;
17151;SDS011;8691;50.828;4.700;2022-11-21T08:56:36;8.05;;;3.40;;
17151;SDS011;8691;50.828;4.700;2022-11-21T08:59:03;6.28;;;3.30;;
17151;SDS011;8691;50.828;4.700;2022-11-21T09:01:30;6.57;;;3.37;;
17151;SDS011;8691;50.828;4.700;2022-11-21T09:03:56;6.47;;;3.60;;
17151;SDS011;8691;50.828;4.700;2022-11-21T09:06:23;6.80;;;3.55;;
17151;SDS011;8691;50.828;4.700;2022-11-21T09:08:51;9.95;;;3.58;;
17151;SDS011;8691;50.828;4.700;2022-11-21T09:11:18;7.50;;;3.90;;
17151;SDS011;8691;50.828;4.700;2022-11-21T09:13:45;8.32;;;3.92;;
17151;SDS011;8691;50.828;4.700;2022-11-21T09:16:15;5.68;;;3.35;;
17151;SDS011;8691;50.828;4.700;2022-11-21T09:18:59;6.97;;;3.00;;
17151;SDS011;8691;50.828;4.700;2022-11-21T09:21:26;6.80;;;3.00;;
17151;SDS011;8691;50.828;4.700;2022-11-21T09:23:53;5.82;;;3.30;;
17151;SDS011;8691;50.828;4.700;2022-11-21T09:26:20;8.80;;;3.40;;
17151;SDS011;8691;50.828;4.700;2022-11-21T09:28:47;3.97;;;2.67;;
17151;SDS011;8691;50.828;4.700;2022-11-21T09:31:14;5.95;;;3.03;;
17151;SDS011;8691;50.828;4.700;2022-11-21T09:33:41;5.90;;;3.10;;
17151;SDS011;8691;50.828;4.700;2022-11-21T09:36:07;7.80;;;3.10;;
17151;SDS011;8691;50.828;4.700;2022-11-21T09:38:35;7.70;;;3.35;;
17151;SDS011;8691;50.828;4.700;2022-11-21T09:41:15;6.00;;;3.12;;
17151;SDS011;8691;50.828;4.700;2022-11-21T09:46:12;4.63;;;3.00;;
17151;SDS011;8691;50.828;4.700;2022-11-21T09:48:42;4.50;;;2.27;;
17151;SDS011;8691;50.828;4.700;2022-11-21T09:51:11;5.60;;;2.90;;
17151;SDS011;8691;50.828;4.700;2022-11-21T09:53:38;5.93;;;3.07;;
17151;SDS011;8691;50.828;4.700;2022-11-21T09:56:13;5.45;;;2.95;;
17151;SDS011;8691;50.828;4.700;2022-11-21T10:01:17;7.07;;;2.90;;
17151;SDS011;8691;50.828;4.700;2022-11-21T10:03:43;3.90;;;2.60;;
17151;SDS011;8691;50.828;4.700;2022-11-21T10:06:15;6.72;;;3.10;;
17151;SDS011;8691;50.828;4.700;2022-11-21T10:14:39;5.13;;;2.63;;
17151;SDS011;8691;50.828;4.700;2022-11-21T10:20:16;6.27;;;3.57;;
17151;SDS011;8691;50.828;4.700;2022-11-21T10:25:49;5.33;;;3.70;;
17151;SDS011;8691;50.828;4.700;2022-11-21T10:28:30;5.43;;;3.57;;
17151;SDS011;8691;50.828;4.700;2022-11-21T10:30:52;5.73;;;3.87;;
17151;SDS011;8691;50.828;4.700;2022-11-21T10:33:31;3.87;;;3.10;;
17151;SDS011;8691;50.828;4.700;2022-11-21T10:35:59;4.30;;;3.55;;
17151;SDS011;8691;50.828;4.700;2022-11-21T10:38:25;5.90;;;3.40;;
17151;SDS011;8691;50.828;4.700;2022-11-21T10:40:53;5.47;;;3.60;;
17151;SDS011;8691;50.828;4.700;2022-11-21T10:43:34;5.93;;;3.80;;
17151;SDS011;8691;50.828;4.700;2022-11-21T10:46:17;3.33;;;3.03;;
17151;SDS011;8691;50.828;4.700;2022-11-21T10:49:03;5.18;;;3.67;;
17151;SDS011;8691;50.828;4.700;2022-11-21T10:54:08;4.67;;;3.47;;
17151;SDS011;8691;50.828;4.700;2022-11-21T10:56:52;3.77;;;3.33;;
17151;SDS011;8691;50.828;4.700;2022-11-21T10:59:23;6.35;;;3.72;;
17151;SDS011;8691;50.828;4.700;2022-11-21T11:01:56;6.80;;;3.95;;
17151;SDS011;8691;50.828;4.700;2022-11-21T11:04:28;6.43;;;4.20;;
17151;SDS011;8691;50.828;4.700;2022-11-21T11:06:54;6.12;;;3.95;;
17151;SDS011;8691;50.828;4.700;2022-11-21T11:09:27;4.78;;;3.25;;
17151;SDS011;8691;50.828;4.700;2022-11-21T11:14:52;6.22;;;3.28;;
17151;SDS011;8691;50.828;4.700;2022-11-21T11:17:25;6.95;;;3.58;;
17151;SDS011;8691;50.828;4.700;2022-11-21T11:20:04;8.57;;;3.83;;
17151;SDS011;8691;50.828;4.700;2022-11-21T11:22:29;8.30;;;3.40;;
17151;SDS011;8691;50.828;4.700;2022-11-21T11:24:56;6.15;;;3.25;;
17151;SDS011;8691;50.828;4.700;2022-11-21T11:27:28;6.62;;;3.80;;
17151;SDS011;8691;50.828;4.700;2022-11-21T11:29:54;7.87;;;3.80;;
17151;SDS011;8691;50.828;4.700;2022-11-21T11:32:20;5.03;;;3.13;;
17151;SDS011;8691;50.828;4.700;2022-11-21T11:37:23;7.20;;;3.72;;
17151;SDS011;8691;50.828;4.700;2022-11-21T11:49:26;7.85;;;4.50;;
17151;SDS011;8691;50.828;4.700;2022-11-21T11:52:26;8.00;;;4.60;;
17151;SDS011;8691;50.828;4.700;2022-11-21T11:54:53;8.23;;;4.15;;
17151;SDS011;8691;50.828;4.700;2022-11-21T11:57:18;8.40;;;4.27;;
17151;SDS011;8691;50.828;4.700;2022-11-21T11:59:49;9.25;;;4.32;;
17151;SDS011;8691;50.828;4.700;2022-11-21T12:02:26;9.35;;;4.15;;
17151;SDS011;8691;50.828;4.700;2022-11-21T12:04:52;9.20;;;4.15;;
17151;SDS011;8691;50.828;4.700;2022-11-21T12:07:19;6.73;;;3.30;;
17151;SDS011;8691;50.828;4.700;2022-11-21T12:09:48;8.40;;;3.92;;
17151;SDS011;8691;50.828;4.700;2022-11-21T12:12:37;7.82;;;4.15;;
17151;SDS011;8691;50.828;4.700;2022-11-21T12:20:41;8.30;;;3.65;;
17151;SDS011;8691;50.828;4.700;2022-11-21T12:23:08;8.68;;;3.95;;
17151;SDS011;8691;50.828;4.700;2022-11-21T12:25:35;9.77;;;3.70;;
17151;SDS011;8691;50.828;4.700;2022-11-21T12:28:00;9.07;;;3.70;;
17151;SDS011;8691;50.828;4.700;2022-11-21T12:33:00;8.07;;;3.40;;
17151;SDS011;8691;50.828;4.700;2022-11-21T12:35:45;8.98;;;3.75;;
17151;SDS011;8691;50.828;4.700;2022-11-21T12:43:49;7.23;;;2.90;;
17151;SDS011;8691;50.828;4.700;2022-11-21T12:46:17;9.70;;;4.10;;
17151;SDS011;8691;50.828;4.700;2022-11-21T12:57:33;10.18;;;3.70;;
17151;SDS011;8691;50.828;4.700;2022-11-21T13:00:08;9.88;;;3.67;;
17151;SDS011;8691;50.828;4.700;2022-11-21T13:05:25;8.20;;;3.45;;
17151;SDS011;8691;50.828;4.700;2022-11-21T13:07:54;8.32;;;3.53;;
17151;SDS011;8691;50.828;4.700;2022-11-21T13:10:20;9.50;;;3.60;;
17151;SDS011;8691;50.828;4.700;2022-11-21T13:12:52;7.73;;;3.40;;
17151;SDS011;8691;50.828;4.700;2022-11-21T13:18:02;9.17;;;3.50;;
17151;SDS011;8691;50.828;4.700;2022-11-21T13:20:32;8.98;;;3.30;;
17151;SDS011;8691;50.828;4.700;2022-11-21T13:23:10;6.30;;;3.10;;
17151;SDS011;8691;50.828;4.700;2022-11-21T13:30:50;9.10;;;3.00;;
17151;SDS011;8691;50.828;4.700;2022-11-21T13:36:10;5.60;;;3.33;;
17151;SDS011;8691;50.828;4.700;2022-11-21T13:46:57;8.23;;;3.20;;
17151;SDS011;8691;50.828;4.700;2022-11-21T13:55:48;5.37;;;2.17;;
17151;SDS011;8691;50.828;4.700;2022-11-21T13:58:18;5.70;;;1.97;;
17151;SDS011;8691;50.828;4.700;2022-11-21T14:08:40;7.95;;;2.88;;
17151;SDS011;8691;50.828;4.700;2022-11-21T14:11:53;5.53;;;2.37;;
17151;SDS011;8691;50.828;4.700;2022-11-21T14:13:46;6.20;;;2.78;;
17151;SDS011;8691;50.828;4.700;2022-11-21T14:18:43;4.75;;;2.50;;
17151;SDS011;8691;50.828;4.700;2022-11-21T14:21:44;7.53;;;3.08;;
17151;SDS011;8691;50.828;4.700;2022-11-21T14:23:49;8.20;;;3.12;;
17151;SDS011;8691;50.828;4.700;2022-11-21T14:26:17;7.45;;;2.70;;
17151;SDS011;8691;50.828;4.700;2022-11-21T14:28:43;8.62;;;2.40;;
17151;SDS011;8691;50.828;4.700;2022-11-21T14:31:11;7.12;;;2.55;;
17151;SDS011;8691;50.828;4.700;2022-11-21T14:33:40;4.87;;;2.30;;
17151;SDS011;8691;50.828;4.700;2022-11-21T14:36:08;5.70;;;2.40;;
17151;SDS011;8691;50.828;4.700;2022-11-21T14:41:26;5.87;;;2.40;;
17151;SDS011;8691;50.828;4.700;2022-11-21T14:46:25;5.23;;;2.20;;
17151;SDS011;8691;50.828;4.700;2022-11-21T14:48:52;6.90;;;2.50;;
17151;SDS011;8691;50.828;4.700;2022-11-21T14:51:19;6.10;;;2.23;;
17151;SDS011;8691;50.828;4.700;2022-11-21T14:53:51;7.45;;;2.40;;
17151;SDS011;8691;50.828;4.700;2022-11-21T14:56:22;8.30;;;2.67;;
17151;SDS011;8691;50.828;4.700;2022-11-21T14:58:51;7.05;;;2.50;;
17151;SDS011;8691;50.828;4.700;2022-11-21T15:01:19;5.05;;;2.08;;
17151;SDS011;8691;50.828;4.700;2022-11-21T15:03:57;6.28;;;2.35;;
17151;SDS011;8691;50.828;4.700;2022-11-21T15:06:23;5.75;;;2.20;;
17151;SDS011;8691;50.828;4.700;2022-11-21T15:08:50;6.33;;;2.40;;
17151;SDS011;8691;50.828;4.700;2022-11-21T15:11:17;6.32;;;2.60;;
17151;SDS011;8691;50.828;4.700;2022-11-21T15:13:45;7.00;;;2.47;;
17151;SDS011;8691;50.828;4.700;2022-11-21T15:16:11;4.88;;;2.20;;
17151;SDS011;8691;50.828;4.700;2022-11-21T15:18:39;6.78;;;2.60;;
17151;SDS011;8691;50.828;4.700;2022-11-21T15:21:05;6.28;;;2.30;;
17151;SDS011;8691;50.828;4.700;2022-11-21T15:25:59;6.60;;;2.53;;
17151;SDS011;8691;50.828;4.700;2022-11-21T15:28:26;7.40;;;2.47;;
17151;SDS011;8691;50.828;4.700;2022-11-21T15:36:23;8.77;;;2.72;;
17151;SDS011;8691;50.828;4.700;2022-11-21T15:38:51;7.30;;;2.40;;
17151;SDS011;8691;50.828;4.700;2022-11-21T15:43:44;8.47;;;2.40;;
17151;SDS011;8691;50.828;4.700;2022-11-21T15:46:21;7.30;;;2.60;;
17151;SDS011;8691;50.828;4.700;2022-11-21T15:48:48;7.00;;;2.67;;
17151;SDS011;8691;50.828;4.700;2022-11-21T15:51:17;7.17;;;2.33;;
17151;SDS011;8691;50.828;4.700;2022-11-21T15:53:43;6.83;;;2.53;;
17151;SDS011;8691;50.828;4.700;2022-11-21T15:56:11;6.80;;;2.37;;
17151;SDS011;8691;50.828;4.700;2022-11-21T15:58:37;6.07;;;2.50;;
17151;SDS011;8691;50.828;4.700;2022-11-21T16:01:05;7.57;;;2.50;;
17151;SDS011;8691;50.828;4.700;2022-11-21T16:03:31;5.00;;;2.53;;
17151;SDS011;8691;50.828;4.700;2022-11-21T16:05:58;8.55;;;2.90;;
17151;SDS011;8691;50.828;4.700;2022-11-21T16:08:25;4.57;;;2.60;;
17151;SDS011;8691;50.828;4.700;2022-11-21T16:10:52;8.82;;;3.58;;
17151;SDS011;8691;50.828;4.700;2022-11-21T16:13:19;8.27;;;3.17;;
17151;SDS011;8691;50.828;4.700;2022-11-21T16:15:46;6.88;;;2.90;;
17151;SDS011;8691;50.828;4.700;2022-11-21T16:18:13;9.05;;;3.10;;
17151;SDS011;8691;50.828;4.700;2022-11-21T16:20:40;8.48;;;3.25;;
17151;SDS011;8691;50.828;4.700;2022-11-21T16:23:08;8.30;;;3.35;;
17151;SDS011;8691;50.828;4.700;2022-11-21T16:25:34;5.07;;;2.70;;
17151;SDS011;8691;50.828;4.700;2022-11-21T16:28:01;5.37;;;2.80;;
17151;SDS011;8691;50.828;4.700;2022-11-21T16:30:28;8.88;;;3.03;;
17151;SDS011;8691;50.828;4.700;2022-11-21T16:32:54;5.85;;;2.90;;
17151;SDS011;8691;50.828;4.700;2022-11-21T16:35:22;7.30;;;2.70;;
17151;SDS011;8691;50.828;4.700;2022-11-21T16:37:48;7.85;;;2.72;;
17151;SDS011;8691;50.828;4.700;2022-11-21T16:40:15;10.52;;;3.12;;
17151;SDS011;8691;50.828;4.700;2022-11-21T16:42:42;8.00;;;3.22;;
17151;SDS011;8691;50.828;4.700;2022-11-21T16:45:09;8.68;;;3.20;;
17151;SDS011;8691;50.828;4.700;2022-11-21T16:47:36;8.12;;;3.20;;
17151;SDS011;8691;50.828;4.700;2022-11-21T16:50:03;8.68;;;2.72;;
17151;SDS011;8691;50.828;4.700;2022-11-21T16:52:33;8.30;;;3.10;;
17151;SDS011;8691;50.828;4.700;2022-11-21T16:55:00;8.62;;;3.00;;
17151;SDS011;8691;50.828;4.700;2022-11-21T16:57:27;10.32;;;2.95;;
17151;SDS011;8691;50.828;4.700;2022-11-21T16:59:54;5.27;;;2.33;;
17151;SDS011;8691;50.828;4.700;2022-11-21T17:02:21;10.52;;;2.83;;
17151;SDS011;8691;50.828;4.700;2022-11-21T17:04:49;8.15;;;2.97;;
17151;SDS011;8691;50.828;4.700;2022-11-21T17:07:16;7.53;;;3.00;;
17151;SDS011;8691;50.828;4.700;2022-11-21T17:09:43;11.25;;;3.00;;